Miami, Florida
Traffic Map
Current Weather Conditions
Miami, Florida
Scattered Clouds
Scattered Clouds
80°
Feels Like: 85°
Wind Chill: 80° Ceiling: Unl
Heat Index: 85° Visibility: 10mi
Dew Point: 74° Wind: 3mph
Humidity: 81% Direction: 70° (ENE)
Pressure: 29.96in Gusts: 0mph
Raw Report DataKMIA 260653Z 07003KT 10SM FEW022 SCT250 27/23 A2996 RMK AO2 SLP146 T02670233 $
Traffic Incident Summary
Active as of:
Severity:
Category:
InformationThere was an issue retrieving the traffic information for this location. Please try a different location or try again shortly.
Advertisements
Track Severe Weather on mobile